createdAt,value
2023-04-29T00:01:25.884Z,4.30
2023-04-29T00:03:53.501Z,1.77
2023-04-29T00:06:20.537Z,2.57
2023-04-29T00:08:47.473Z,2.73
2023-04-29T00:11:14.550Z,3.53
2023-04-29T00:13:41.527Z,2.13
2023-04-29T00:16:12.177Z,1.90
2023-04-29T00:18:39.362Z,2.10
2023-04-29T00:21:06.388Z,3.20
2023-04-29T00:23:34.444Z,3.43
2023-04-29T00:26:01.437Z,5.60
2023-04-29T00:28:29.540Z,3.17
2023-04-29T00:30:56.607Z,7.77
2023-04-29T00:33:23.691Z,3.03
2023-04-29T00:35:50.983Z,1.83
2023-04-29T00:38:17.933Z,9.00
2023-04-29T00:40:45.115Z,2.00
2023-04-29T00:43:12.282Z,10.30
2023-04-29T00:45:39.468Z,18.63
2023-04-29T00:48:06.787Z,8.87
2023-04-29T00:50:34.170Z,3.47
2023-04-29T00:53:01.414Z,3.37
2023-04-29T00:55:29.034Z,4.63
2023-04-29T00:57:57.184Z,2.00
2023-04-29T01:00:24.966Z,2.70
2023-04-29T01:02:55.099Z,2.43
2023-04-29T01:05:22.030Z,3.07
2023-04-29T01:07:57.607Z,2.30
2023-04-29T01:10:30.337Z,2.20
2023-04-29T01:13:31.033Z,1.93
2023-04-29T01:16:04.202Z,1.87
2023-04-29T01:18:37.710Z,3.10
2023-04-29T01:21:04.706Z,2.90
2023-04-29T01:23:31.861Z,3.00
2023-04-29T01:25:59.124Z,4.80
2023-04-29T01:28:43.588Z,3.83
2023-04-29T01:31:27.233Z,3.50
2023-04-29T01:34:14.833Z,4.40
2023-04-29T01:37:05.373Z,3.80
2023-04-29T01:39:58.413Z,6.90
2023-04-29T01:42:40.550Z,3.90
2023-04-29T01:45:11.137Z,3.57
2023-04-29T01:47:39.278Z,6.70
2023-04-29T01:50:07.039Z,3.43
2023-04-29T01:52:34.017Z,5.20
2023-04-29T01:55:01.003Z,3.70
2023-04-29T01:57:27.922Z,2.40
2023-04-29T01:59:55.380Z,6.13
2023-04-29T02:02:23.546Z,4.00
2023-04-29T02:04:50.754Z,2.70
2023-04-29T02:07:18.028Z,2.30
2023-04-29T02:09:44.898Z,1.90
2023-04-29T02:12:11.830Z,2.10
2023-04-29T02:14:38.800Z,3.20
2023-04-29T02:17:05.744Z,2.97
2023-04-29T02:19:32.649Z,2.73
2023-04-29T02:21:59.599Z,2.60
2023-04-29T02:24:26.853Z,2.37
2023-04-29T02:26:53.913Z,3.30
2023-04-29T02:29:20.847Z,5.80
2023-04-29T02:31:47.880Z,4.13
2023-04-29T02:34:14.832Z,2.20
2023-04-29T02:36:41.717Z,2.73
2023-04-29T02:39:08.599Z,6.13
2023-04-29T02:41:36.605Z,2.50
2023-04-29T02:44:03.968Z,3.20
2023-04-29T02:46:33.424Z,4.10
2023-04-29T02:49:01.075Z,3.47
2023-04-29T02:51:29.093Z,2.87
2023-04-29T02:53:56.345Z,2.70
2023-04-29T02:56:23.449Z,4.20
2023-04-29T02:58:50.379Z,3.60
2023-04-29T03:01:17.329Z,3.57
2023-04-29T03:03:44.701Z,2.90
2023-04-29T03:06:11.945Z,3.37
2023-04-29T03:08:38.843Z,4.00
2023-04-29T03:11:05.808Z,2.80
2023-04-29T03:13:32.831Z,4.23
2023-04-29T03:16:00.646Z,5.53
2023-04-29T03:18:28.226Z,3.60
2023-04-29T03:20:55.131Z,3.03
2023-04-29T03:23:22.524Z,4.73
2023-04-29T03:25:49.987Z,4.57
2023-04-29T03:28:16.985Z,2.83
2023-04-29T03:30:43.861Z,5.20
2023-04-29T03:33:10.853Z,3.10
2023-04-29T03:35:37.753Z,2.60
2023-04-29T03:38:04.670Z,2.50
2023-04-29T03:40:31.637Z,2.80
2023-04-29T03:42:58.558Z,2.70
2023-04-29T03:45:25.565Z,2.70
2023-04-29T03:47:53.405Z,4.03
2023-04-29T03:50:20.459Z,2.87
2023-04-29T03:52:47.539Z,2.80
2023-04-29T03:55:14.460Z,2.03
2023-04-29T03:57:42.559Z,2.50
2023-04-29T04:00:10.354Z,5.83
2023-04-29T04:02:37.605Z,2.33
2023-04-29T04:05:05.022Z,3.07
2023-04-29T04:07:31.886Z,2.60
2023-04-29T04:09:58.822Z,2.47
2023-04-29T04:12:25.702Z,1.70
2023-04-29T04:14:53.048Z,3.10
2023-04-29T04:17:20.396Z,2.47
2023-04-29T04:19:47.341Z,2.90
2023-04-29T04:22:14.314Z,1.97
2023-04-29T04:24:41.280Z,5.07
2023-04-29T04:27:08.190Z,2.93
2023-04-29T04:29:35.337Z,2.07
2023-04-29T04:32:02.791Z,3.37
2023-04-29T04:34:29.791Z,3.17
2023-04-29T04:36:56.737Z,2.23
2023-04-29T04:39:23.828Z,2.60
2023-04-29T04:41:50.767Z,3.17
2023-04-29T04:44:17.671Z,5.07
2023-04-29T04:46:44.710Z,2.63
2023-04-29T04:49:11.595Z,3.80
2023-04-29T04:51:38.521Z,5.23
2023-04-29T04:54:05.622Z,2.00
2023-04-29T04:56:32.658Z,5.03
2023-04-29T04:58:59.541Z,2.60
2023-04-29T05:01:26.480Z,2.40
2023-04-29T05:03:53.510Z,5.17
2023-04-29T05:06:20.498Z,8.70
2023-04-29T05:08:47.557Z,1.90
2023-04-29T05:11:22.320Z,2.00
2023-04-29T05:13:49.581Z,2.10
2023-04-29T05:16:18.102Z,2.07
2023-04-29T05:18:46.577Z,2.47
2023-04-29T05:21:14.577Z,1.70
2023-04-29T05:23:43.458Z,1.70
2023-04-29T05:26:10.471Z,2.80
2023-04-29T05:28:37.408Z,2.10
2023-04-29T05:31:04.455Z,1.87
2023-04-29T05:33:31.391Z,4.97
2023-04-29T05:35:58.275Z,2.43
2023-04-29T05:38:28.933Z,2.53
2023-04-29T05:40:56.603Z,7.13
2023-04-29T05:43:24.019Z,3.13
2023-04-29T05:45:51.842Z,6.30
2023-04-29T05:48:20.002Z,3.23
2023-04-29T05:50:48.250Z,2.90
2023-04-29T05:53:15.344Z,2.40
2023-04-29T05:55:45.069Z,2.10
2023-04-29T05:58:13.264Z,5.53
2023-04-29T06:00:40.824Z,2.60
2023-04-29T06:03:08.039Z,1.93
2023-04-29T06:05:35.573Z,2.60
2023-04-29T06:08:03.922Z,2.93
2023-04-29T06:10:30.792Z,2.33
2023-04-29T06:12:57.664Z,2.40
2023-04-29T06:15:24.713Z,1.80
2023-04-29T06:17:52.230Z,2.30
2023-04-29T06:20:19.748Z,2.60
2023-04-29T06:22:47.521Z,5.07
2023-04-29T06:25:14.720Z,2.20
2023-04-29T06:27:41.637Z,2.77
2023-04-29T06:30:09.314Z,2.13
2023-04-29T06:32:39.284Z,2.93
2023-04-29T06:35:06.975Z,2.73
2023-04-29T06:37:35.314Z,8.17
2023-04-29T06:40:04.913Z,2.57
2023-04-29T06:42:31.862Z,2.80
2023-04-29T06:44:58.895Z,3.70
2023-04-29T06:47:25.885Z,2.33
2023-04-29T06:49:53.501Z,2.33
2023-04-29T06:52:20.641Z,3.37
2023-04-29T06:54:47.622Z,1.70
2023-04-29T06:57:14.582Z,2.07
2023-04-29T06:59:41.556Z,2.43
2023-04-29T07:02:08.443Z,5.00
2023-04-29T07:04:37.540Z,2.50
2023-04-29T07:07:04.557Z,2.23
2023-04-29T07:09:31.781Z,2.73
2023-04-29T07:11:58.698Z,5.03
2023-04-29T07:14:25.732Z,2.63
2023-04-29T07:16:55.961Z,3.40
2023-04-29T07:19:23.052Z,2.63
2023-04-29T07:21:50.064Z,2.03
2023-04-29T07:24:17.719Z,3.03
2023-04-29T07:26:45.464Z,2.07
2023-04-29T07:29:12.488Z,4.20
2023-04-29T07:31:39.388Z,5.43
2023-04-29T07:34:06.354Z,2.80
2023-04-29T07:36:33.340Z,2.37
2023-04-29T07:39:00.373Z,2.07
2023-04-29T07:41:28.431Z,2.40
2023-04-29T07:43:55.485Z,2.03
2023-04-29T07:46:22.464Z,1.90
2023-04-29T07:48:49.489Z,2.03
2023-04-29T07:51:16.429Z,2.20
2023-04-29T07:53:43.582Z,3.07
2023-04-29T07:56:10.797Z,2.67
2023-04-29T07:58:37.846Z,5.33
2023-04-29T08:01:12.290Z,13.50
2023-04-29T08:03:41.635Z,2.50
2023-04-29T08:06:09.055Z,3.33
2023-04-29T08:08:36.332Z,2.60
2023-04-29T08:11:03.584Z,3.30
2023-04-29T08:13:30.566Z,2.43
2023-04-29T08:15:57.522Z,2.63
2023-04-29T08:18:24.468Z,2.13
2023-04-29T08:20:51.590Z,2.03
2023-04-29T08:23:18.525Z,2.23
2023-04-29T08:25:45.651Z,2.70
2023-04-29T08:28:13.063Z,2.83
2023-04-29T08:30:43.129Z,6.20
2023-04-29T08:33:10.230Z,2.50
2023-04-29T08:35:37.671Z,3.00
2023-04-29T08:38:06.799Z,2.60
2023-04-29T08:40:51.926Z,4.90
2023-04-29T08:43:20.476Z,3.10
2023-04-29T08:45:49.708Z,2.50
2023-04-29T08:48:17.890Z,3.30
2023-04-29T08:50:45.679Z,3.37
2023-04-29T08:53:14.367Z,2.90
2023-04-29T08:55:50.427Z,2.60
2023-04-29T08:58:17.643Z,3.63
2023-04-29T09:00:45.381Z,4.70
2023-04-29T09:03:25.914Z,3.03
2023-04-29T09:05:59.725Z,3.53
2023-04-29T09:08:27.712Z,1.97
2023-04-29T09:10:55.085Z,3.10
2023-04-29T09:13:31.491Z,2.13
2023-04-29T09:15:58.978Z,2.50
2023-04-29T09:18:50.490Z,6.20
2023-04-29T09:21:27.289Z,12.73
2023-04-29T09:23:59.871Z,13.63
2023-04-29T09:26:27.893Z,10.50
2023-04-29T09:29:14.137Z,11.90
2023-04-29T09:31:42.239Z,12.40
2023-04-29T09:34:09.917Z,12.17
2023-04-29T09:36:38.536Z,12.10
2023-04-29T09:39:12.641Z,14.30
2023-04-29T09:41:59.390Z,13.20
2023-04-29T09:44:34.526Z,17.10
2023-04-29T09:47:05.584Z,16.50
2023-04-29T09:49:38.426Z,18.60
2023-04-29T09:52:13.526Z,14.10
2023-04-29T09:54:42.489Z,13.10
2023-04-29T09:57:11.845Z,10.70
2023-04-29T09:59:40.850Z,11.70
2023-04-29T10:02:16.038Z,10.87
2023-04-29T10:04:46.525Z,9.50
2023-04-29T10:07:18.095Z,12.07
2023-04-29T10:09:50.585Z,9.70
2023-04-29T10:12:20.320Z,9.40
2023-04-29T10:15:24.106Z,8.03
2023-04-29T10:17:58.602Z,10.37
2023-04-29T10:20:26.373Z,8.50
2023-04-29T10:22:56.418Z,8.80
2023-04-29T10:25:24.990Z,7.10
2023-04-29T10:27:53.731Z,7.43
2023-04-29T10:30:22.701Z,8.87
2023-04-29T10:32:52.422Z,8.90
2023-04-29T10:35:25.863Z,10.80
2023-04-29T10:37:54.353Z,9.43
2023-04-29T10:40:27.143Z,7.57
2023-04-29T10:42:55.630Z,7.10
2023-04-29T10:45:26.869Z,8.07
2023-04-29T10:48:03.140Z,9.90
2023-04-29T10:50:51.918Z,7.77
2023-04-29T10:53:20.245Z,6.30
2023-04-29T10:56:06.406Z,7.67
2023-04-29T10:58:46.755Z,7.63
2023-04-29T11:01:17.926Z,7.37
2023-04-29T11:04:01.993Z,9.57
2023-04-29T11:06:35.061Z,9.37
2023-04-29T11:09:26.448Z,8.43
2023-04-29T11:11:57.969Z,11.67
2023-04-29T11:14:32.605Z,5.97
2023-04-29T11:17:03.014Z,9.60
2023-04-29T11:19:49.035Z,7.40
2023-04-29T11:22:26.853Z,7.17
2023-04-29T11:25:02.124Z,7.13
2023-04-29T11:27:38.096Z,7.00
2023-04-29T11:30:07.716Z,8.00
2023-04-29T11:32:38.604Z,9.00
2023-04-29T11:35:16.325Z,9.43
2023-04-29T11:37:45.803Z,7.60
2023-04-29T11:40:14.319Z,6.90
2023-04-29T11:42:45.684Z,7.70
2023-04-29T11:45:13.203Z,5.77
2023-04-29T11:47:47.362Z,6.83
2023-04-29T11:50:17.807Z,7.73
2023-04-29T11:52:47.756Z,6.77
2023-04-29T11:55:14.888Z,7.03
2023-04-29T11:57:42.000Z,9.17
2023-04-29T12:00:14.197Z,7.40
2023-04-29T12:02:46.488Z,7.57
2023-04-29T12:05:16.022Z,7.30
2023-04-29T12:07:43.838Z,9.67
2023-04-29T12:10:12.114Z,7.37
2023-04-29T12:12:42.396Z,6.60
2023-04-29T12:15:10.808Z,10.10
2023-04-29T12:17:38.640Z,8.20
2023-04-29T12:20:09.236Z,8.50
2023-04-29T12:22:36.413Z,7.60
2023-04-29T12:25:07.932Z,9.17
2023-04-29T12:27:36.866Z,6.63
2023-04-29T12:30:09.575Z,7.10
2023-04-29T12:32:37.318Z,6.37
2023-04-29T12:35:04.715Z,8.20
2023-04-29T12:37:31.704Z,8.20
2023-04-29T12:39:58.631Z,6.23
2023-04-29T12:42:34.124Z,6.40
2023-04-29T12:45:01.168Z,7.70
2023-04-29T12:47:37.234Z,8.57
2023-04-29T12:50:07.142Z,8.60
2023-04-29T12:52:36.415Z,6.37
2023-04-29T12:55:04.672Z,8.00
2023-04-29T12:57:31.628Z,7.40
2023-04-29T12:59:58.573Z,7.87
2023-04-29T13:04:53.287Z,6.67
2023-04-29T13:07:21.041Z,7.00
2023-04-29T13:09:48.049Z,6.37
2023-04-29T13:12:14.941Z,6.97
2023-04-29T13:14:41.854Z,8.50
2023-04-29T13:17:10.599Z,7.80
2023-04-29T13:19:50.280Z,10.70
2023-04-29T13:22:18.782Z,7.53
2023-04-29T13:24:46.684Z,9.57
2023-04-29T13:27:13.772Z,10.13
2023-04-29T13:29:40.743Z,10.87
2023-04-29T13:32:08.794Z,9.10
2023-04-29T13:34:36.149Z,8.97
2023-04-29T13:37:03.142Z,9.70
2023-04-29T13:39:30.178Z,7.80
2023-04-29T13:41:59.169Z,6.37
2023-04-29T13:44:34.298Z,7.50
2023-04-29T13:47:06.835Z,7.27
2023-04-29T13:52:55.640Z,7.17
2023-04-29T13:55:21.524Z,6.20
2023-04-29T14:00:25.455Z,5.40
2023-04-29T14:05:26.483Z,6.87
2023-04-29T14:07:53.669Z,9.37
2023-04-29T14:10:20.675Z,7.10
2023-04-29T14:12:48.685Z,7.93
2023-04-29T14:15:16.359Z,7.40
2023-04-29T14:17:43.412Z,8.87
2023-04-29T14:20:10.874Z,8.77
2023-04-29T14:22:37.775Z,6.50
2023-04-29T14:25:05.284Z,8.40
2023-04-29T14:27:32.236Z,8.90
2023-04-29T14:29:59.134Z,7.03
2023-04-29T14:32:26.143Z,10.40
2023-04-29T14:34:53.501Z,8.10
2023-04-29T14:37:20.645Z,7.03
2023-04-29T14:39:47.564Z,5.73
2023-04-29T14:42:15.088Z,6.20
2023-04-29T14:44:42.033Z,5.80
2023-04-29T14:47:09.445Z,5.93
2023-04-29T14:49:36.438Z,6.80
2023-04-29T14:52:03.821Z,8.60
2023-04-29T14:54:31.187Z,6.10
2023-04-29T14:56:58.086Z,6.93
2023-04-29T14:59:25.093Z,5.67
2023-04-29T15:01:52.029Z,6.17
2023-04-29T15:04:18.967Z,5.60
2023-04-29T15:06:45.980Z,8.03
2023-04-29T15:09:13.302Z,6.80
2023-04-29T15:11:41.307Z,5.50
2023-04-29T15:14:08.315Z,5.80
2023-04-29T15:16:36.341Z,6.37
2023-04-29T15:19:03.275Z,8.40
2023-04-29T15:21:30.266Z,6.23
2023-04-29T15:23:57.391Z,5.90
2023-04-29T15:26:24.442Z,11.33
2023-04-29T15:28:51.341Z,5.90
2023-04-29T15:31:18.713Z,6.30
2023-04-29T15:33:46.149Z,5.23
2023-04-29T15:36:13.322Z,9.97
2023-04-29T15:38:40.370Z,5.07
2023-04-29T15:41:07.301Z,6.30
2023-04-29T15:43:34.354Z,4.10
2023-04-29T15:46:01.401Z,5.30
2023-04-29T15:48:28.358Z,3.77
2023-04-29T15:50:55.373Z,5.00
2023-04-29T15:53:24.251Z,4.50
2023-04-29T15:55:51.767Z,4.67
2023-04-29T15:58:18.751Z,4.50
2023-04-29T16:00:46.749Z,5.50
2023-04-29T16:03:13.784Z,3.90
2023-04-29T16:05:40.812Z,6.07
2023-04-29T16:08:07.726Z,4.30
2023-04-29T16:10:34.813Z,5.20
2023-04-29T16:13:01.772Z,3.67
2023-04-29T16:15:29.622Z,3.87
2023-04-29T16:17:56.770Z,4.73
2023-04-29T16:20:23.712Z,7.90
2023-04-29T16:22:50.695Z,3.70
2023-04-29T16:25:17.748Z,4.13
2023-04-29T16:27:44.719Z,3.70
2023-04-29T16:30:12.070Z,4.20
2023-04-29T16:32:41.493Z,4.73
2023-04-29T16:35:11.791Z,6.37
2023-04-29T16:37:39.139Z,3.70
2023-04-29T16:40:07.209Z,6.93
2023-04-29T16:42:34.090Z,3.80
2023-04-29T16:45:00.980Z,3.37
2023-04-29T16:47:27.906Z,3.93
2023-04-29T16:49:55.888Z,3.97
2023-04-29T16:52:23.212Z,3.70
2023-04-29T16:54:50.276Z,3.57
2023-04-29T16:57:17.399Z,3.37
2023-04-29T16:59:44.270Z,3.00
2023-04-29T17:02:11.370Z,3.03
2023-04-29T17:04:38.408Z,3.93
2023-04-29T17:07:05.800Z,3.70
2023-04-29T17:09:32.738Z,4.17
2023-04-29T17:11:59.687Z,3.50
2023-04-29T17:14:26.830Z,6.57
2023-04-29T17:16:53.880Z,9.23
2023-04-29T17:19:20.865Z,7.30
2023-04-29T17:21:48.399Z,5.27
2023-04-29T17:24:17.006Z,3.50
2023-04-29T17:26:43.896Z,4.10
2023-04-29T17:29:12.460Z,3.20
2023-04-29T17:31:45.341Z,4.20
2023-04-29T17:34:18.716Z,4.10
2023-04-29T17:36:47.487Z,4.30
2023-04-29T17:39:14.696Z,5.93
2023-04-29T17:41:42.147Z,3.77
2023-04-29T17:44:10.239Z,4.00
2023-04-29T17:46:38.554Z,4.13
2023-04-29T17:49:05.705Z,4.20
2023-04-29T17:51:35.142Z,4.50
2023-04-29T17:54:05.467Z,4.30
2023-04-29T17:56:34.789Z,4.20
2023-04-29T17:59:03.617Z,4.23
2023-04-29T18:01:30.741Z,4.90
2023-04-29T18:03:57.684Z,4.53
2023-04-29T18:06:24.816Z,5.03
2023-04-29T18:08:51.801Z,5.13
2023-04-29T18:11:18.695Z,6.53
2023-04-29T18:13:45.632Z,4.90
2023-04-29T18:16:12.743Z,5.20
2023-04-29T18:18:39.707Z,6.37
2023-04-29T18:21:06.716Z,7.50
2023-04-29T18:23:34.236Z,6.30
2023-04-29T18:26:01.277Z,6.60
2023-04-29T18:28:29.322Z,5.37
2023-04-29T18:30:57.027Z,6.40
2023-04-29T18:33:26.377Z,6.80
2023-04-29T18:35:54.671Z,8.17
2023-04-29T18:38:21.785Z,7.17
2023-04-29T18:40:48.932Z,7.77
2023-04-29T18:43:18.135Z,9.20
2023-04-29T18:45:45.831Z,9.70
2023-04-29T18:48:13.028Z,11.80
2023-04-29T18:50:42.486Z,13.40
2023-04-29T18:53:09.469Z,13.20
2023-04-29T18:55:36.527Z,13.33
2023-04-29T18:58:03.508Z,15.30
2023-04-29T19:00:30.563Z,16.47
2023-04-29T19:02:57.797Z,18.03
2023-04-29T19:05:24.778Z,16.53
2023-04-29T19:07:51.671Z,21.77
2023-04-29T19:10:18.772Z,18.03
2023-04-29T19:12:46.236Z,18.27
2023-04-29T19:15:13.388Z,17.80
2023-04-29T19:17:40.290Z,22.63
2023-04-29T19:20:08.243Z,21.57
2023-04-29T19:22:35.154Z,21.20
2023-04-29T19:25:02.308Z,22.93
2023-04-29T19:27:29.278Z,22.70
2023-04-29T19:29:56.498Z,23.60
2023-04-29T19:32:23.778Z,21.80
2023-04-29T19:34:50.751Z,22.33
2023-04-29T19:37:17.716Z,24.73
2023-04-29T19:39:44.663Z,21.03
2023-04-29T19:42:12.442Z,20.07
2023-04-29T19:44:39.424Z,21.20
2023-04-29T19:47:06.485Z,26.03
2023-04-29T19:49:33.905Z,27.47
2023-04-29T19:52:02.124Z,21.00
2023-04-29T19:54:29.215Z,21.10
2023-04-29T19:56:56.224Z,19.90
2023-04-29T19:59:23.188Z,24.57
2023-04-29T20:01:51.394Z,24.07
2023-04-29T20:04:18.391Z,22.00
2023-04-29T20:06:45.355Z,23.40
2023-04-29T20:09:12.505Z,20.73
2023-04-29T20:11:39.520Z,23.33
2023-04-29T20:14:06.419Z,18.97
2023-04-29T20:16:35.349Z,19.33
2023-04-29T20:19:02.341Z,18.73
2023-04-29T20:21:29.236Z,21.43
2023-04-29T20:23:56.317Z,19.47
2023-04-29T20:26:23.317Z,18.10
2023-04-29T20:28:50.316Z,18.50
2023-04-29T20:31:17.173Z,16.70
2023-04-29T20:33:44.092Z,21.23
2023-04-29T20:36:11.102Z,17.77
2023-04-29T20:38:38.000Z,14.23
2023-04-29T20:41:07.995Z,16.03
2023-04-29T20:43:35.189Z,15.23
2023-04-29T20:46:03.015Z,14.13
2023-04-29T20:48:30.081Z,16.53
2023-04-29T20:50:56.955Z,16.60
2023-04-29T20:53:23.878Z,15.07
2023-04-29T20:55:50.880Z,18.83
2023-04-29T20:58:17.938Z,14.53
2023-04-29T21:00:45.861Z,14.30
2023-04-29T21:03:12.801Z,16.93
2023-04-29T21:05:39.661Z,14.47
2023-04-29T21:08:06.671Z,11.90
2023-04-29T21:10:33.706Z,14.67
2023-04-29T21:13:00.767Z,12.97
2023-04-29T21:15:29.260Z,14.40
2023-04-29T21:17:56.801Z,12.50
2023-04-29T21:20:24.095Z,10.63
2023-04-29T21:22:51.385Z,10.60
2023-04-29T21:25:18.609Z,14.03
2023-04-29T21:27:45.637Z,12.40
2023-04-29T21:30:13.216Z,12.70
2023-04-29T21:32:40.462Z,11.77
2023-04-29T21:35:08.279Z,11.57
2023-04-29T21:37:35.229Z,11.10
2023-04-29T21:40:04.149Z,11.13
2023-04-29T21:42:31.937Z,9.80
2023-04-29T21:45:03.390Z,13.00
2023-04-29T21:47:30.828Z,10.70
2023-04-29T21:49:58.017Z,11.03
2023-04-29T21:52:25.622Z,14.17
2023-04-29T21:54:52.606Z,13.07
2023-04-29T21:57:26.362Z,12.93
2023-04-29T21:59:59.132Z,13.50
2023-04-29T22:02:27.695Z,11.10
2023-04-29T22:04:54.929Z,12.60
2023-04-29T22:07:22.994Z,13.20
2023-04-29T22:09:50.009Z,11.37
2023-04-29T22:12:20.587Z,11.33
2023-04-29T22:14:47.766Z,12.10
2023-04-29T22:17:14.923Z,14.30
2023-04-29T22:19:41.839Z,15.50
2023-04-29T22:22:09.361Z,12.03
2023-04-29T22:24:36.264Z,12.83
2023-04-29T22:27:03.712Z,13.30
2023-04-29T22:29:30.759Z,13.43
2023-04-29T22:31:57.737Z,12.07
2023-04-29T22:34:24.801Z,13.17
2023-04-29T22:36:51.669Z,12.77
2023-04-29T22:39:18.722Z,11.97
2023-04-29T22:41:45.693Z,13.90
2023-04-29T22:44:12.679Z,13.83
2023-04-29T22:46:39.637Z,12.80
2023-04-29T22:49:06.599Z,14.60
2023-04-29T22:51:33.470Z,14.80
2023-04-29T22:54:00.556Z,12.37
2023-04-29T22:56:28.850Z,13.50
2023-04-29T22:58:55.995Z,12.30
2023-04-29T23:01:22.976Z,17.47
2023-04-29T23:03:49.986Z,15.00
2023-04-29T23:06:16.986Z,14.43
2023-04-29T23:08:46.556Z,13.67
2023-04-29T23:11:13.492Z,16.60
2023-04-29T23:13:40.577Z,13.97
2023-04-29T23:16:10.559Z,13.40
2023-04-29T23:18:38.003Z,13.50
2023-04-29T23:21:05.312Z,13.67
2023-04-29T23:23:32.248Z,14.57
2023-04-29T23:25:59.171Z,12.40
2023-04-29T23:28:26.071Z,14.40
2023-04-29T23:30:54.440Z,16.43
2023-04-29T23:33:21.447Z,14.17
2023-04-29T23:35:52.986Z,14.23
2023-04-29T23:38:20.295Z,14.00
2023-04-29T23:40:47.472Z,13.07
2023-04-29T23:43:17.224Z,15.80
2023-04-29T23:45:45.889Z,13.40
2023-04-29T23:48:13.350Z,17.47
2023-04-29T23:50:40.307Z,13.23
2023-04-29T23:53:07.250Z,14.00
2023-04-29T23:55:34.595Z,14.90
2023-04-29T23:58:01.545Z,14.37
